sensor_id;sensor_type;location;lat;lon;timestamp;temperature;humidity
80540;DHT22;69869;48.036;15.780;2023-10-08T00:01:08;17.10;68.40
80540;DHT22;69869;48.036;15.780;2023-10-08T00:03:39;17.10;68.40
80540;DHT22;69869;48.036;15.780;2023-10-08T00:06:06;17.10;68.50
80540;DHT22;69869;48.036;15.780;2023-10-08T00:08:35;17.10;68.50
80540;DHT22;69869;48.036;15.780;2023-10-08T00:11:01;17.10;68.40
80540;DHT22;69869;48.036;15.780;2023-10-08T00:13:35;17.10;68.50
80540;DHT22;69869;48.036;15.780;2023-10-08T00:16:07;17.10;68.50
80540;DHT22;69869;48.036;15.780;2023-10-08T00:18:37;17.10;68.60
80540;DHT22;69869;48.036;15.780;2023-10-08T00:21:04;17.10;68.60
80540;DHT22;69869;48.036;15.780;2023-10-08T00:23:36;17.10;68.60
80540;DHT22;69869;48.036;15.780;2023-10-08T00:26:10;17.10;68.60
80540;DHT22;69869;48.036;15.780;2023-10-08T00:28:36;17.20;68.70
80540;DHT22;69869;48.036;15.780;2023-10-08T00:31:02;17.20;68.80
80540;DHT22;69869;48.036;15.780;2023-10-08T00:33:38;17.20;68.80
80540;DHT22;69869;48.036;15.780;2023-10-08T00:36:05;17.10;68.80
80540;DHT22;69869;48.036;15.780;2023-10-08T00:38:43;17.20;68.80
80540;DHT22;69869;48.036;15.780;2023-10-08T00:41:16;17.20;69.20
80540;DHT22;69869;48.036;15.780;2023-10-08T00:43:42;17.20;68.80
80540;DHT22;69869;48.036;15.780;2023-10-08T00:46:10;17.20;68.80
80540;DHT22;69869;48.036;15.780;2023-10-08T00:48:52;17.20;68.80
80540;DHT22;69869;48.036;15.780;2023-10-08T00:51:25;17.20;68.90
80540;DHT22;69869;48.036;15.780;2023-10-08T00:54:03;17.20;68.90
80540;DHT22;69869;48.036;15.780;2023-10-08T00:56:34;17.20;68.90
80540;DHT22;69869;48.036;15.780;2023-10-08T00:59:12;17.10;68.90
80540;DHT22;69869;48.036;15.780;2023-10-08T01:01:39;17.20;69.00
80540;DHT22;69869;48.036;15.780;2023-10-08T01:04:05;17.20;69.00
80540;DHT22;69869;48.036;15.780;2023-10-08T01:06:38;17.20;69.00
80540;DHT22;69869;48.036;15.780;2023-10-08T01:09:05;17.20;69.00
80540;DHT22;69869;48.036;15.780;2023-10-08T01:11:43;17.20;69.10
80540;DHT22;69869;48.036;15.780;2023-10-08T01:14:16;17.20;69.10
80540;DHT22;69869;48.036;15.780;2023-10-08T01:16:49;17.20;69.10
80540;DHT22;69869;48.036;15.780;2023-10-08T01:19:22;17.20;69.10
80540;DHT22;69869;48.036;15.780;2023-10-08T01:21:48;17.20;69.10
80540;DHT22;69869;48.036;15.780;2023-10-08T01:24:13;17.20;69.10
80540;DHT22;69869;48.036;15.780;2023-10-08T01:26:42;17.20;69.20
80540;DHT22;69869;48.036;15.780;2023-10-08T01:29:09;17.20;69.20
80540;DHT22;69869;48.036;15.780;2023-10-08T01:31:47;17.20;69.30
80540;DHT22;69869;48.036;15.780;2023-10-08T01:34:20;17.20;69.20
80540;DHT22;69869;48.036;15.780;2023-10-08T01:36:52;17.20;69.30
80540;DHT22;69869;48.036;15.780;2023-10-08T01:39:18;17.20;69.30
80540;DHT22;69869;48.036;15.780;2023-10-08T01:41:44;17.20;69.30
80540;DHT22;69869;48.036;15.780;2023-10-08T01:44:10;17.20;69.30
80540;DHT22;69869;48.036;15.780;2023-10-08T01:46:36;17.20;69.40
80540;DHT22;69869;48.036;15.780;2023-10-08T01:49:03;17.20;69.40
80540;DHT22;69869;48.036;15.780;2023-10-08T01:51:39;17.20;69.40
80540;DHT22;69869;48.036;15.780;2023-10-08T01:54:10;17.20;69.40
80540;DHT22;69869;48.036;15.780;2023-10-08T01:56:40;17.20;69.40
80540;DHT22;69869;48.036;15.780;2023-10-08T01:59:10;17.20;69.40
80540;DHT22;69869;48.036;15.780;2023-10-08T02:01:37;17.20;69.50
80540;DHT22;69869;48.036;15.780;2023-10-08T02:04:05;17.20;69.50
80540;DHT22;69869;48.036;15.780;2023-10-08T02:06:33;17.20;69.50
80540;DHT22;69869;48.036;15.780;2023-10-08T02:08:58;17.20;69.60
80540;DHT22;69869;48.036;15.780;2023-10-08T02:11:24;17.20;69.50
80540;DHT22;69869;48.036;15.780;2023-10-08T02:13:53;17.20;69.50
80540;DHT22;69869;48.036;15.780;2023-10-08T02:16:18;17.20;69.50
80540;DHT22;69869;48.036;15.780;2023-10-08T02:18:44;17.20;69.60
80540;DHT22;69869;48.036;15.780;2023-10-08T02:21:11;17.20;69.60
80540;DHT22;69869;48.036;15.780;2023-10-08T02:23:37;17.20;69.50
80540;DHT22;69869;48.036;15.780;2023-10-08T02:26:02;17.20;69.70
80540;DHT22;69869;48.036;15.780;2023-10-08T02:28:28;17.20;69.60
80540;DHT22;69869;48.036;15.780;2023-10-08T02:30:54;17.20;69.60
80540;DHT22;69869;48.036;15.780;2023-10-08T02:33:20;17.20;69.60
80540;DHT22;69869;48.036;15.780;2023-10-08T02:35:47;17.20;69.70
80540;DHT22;69869;48.036;15.780;2023-10-08T02:38:15;17.20;69.70
80540;DHT22;69869;48.036;15.780;2023-10-08T02:40:42;17.20;69.70
80540;DHT22;69869;48.036;15.780;2023-10-08T02:43:12;17.20;69.70
80540;DHT22;69869;48.036;15.780;2023-10-08T02:45:39;17.20;69.70
80540;DHT22;69869;48.036;15.780;2023-10-08T02:48:07;17.20;69.70
80540;DHT22;69869;48.036;15.780;2023-10-08T02:50:41;17.20;69.80
80540;DHT22;69869;48.036;15.780;2023-10-08T02:53:07;17.20;69.80
80540;DHT22;69869;48.036;15.780;2023-10-08T02:55:40;17.20;69.80
80540;DHT22;69869;48.036;15.780;2023-10-08T02:58:13;17.20;69.80
80540;DHT22;69869;48.036;15.780;2023-10-08T03:00:45;17.30;70.00
80540;DHT22;69869;48.036;15.780;2023-10-08T03:03:15;17.30;70.00
80540;DHT22;69869;48.036;15.780;2023-10-08T03:05:45;17.30;70.00
80540;DHT22;69869;48.036;15.780;2023-10-08T03:08:12;17.30;70.00
80540;DHT22;69869;48.036;15.780;2023-10-08T03:10:40;17.30;70.00
80540;DHT22;69869;48.036;15.780;2023-10-08T03:13:07;17.30;70.00
80540;DHT22;69869;48.036;15.780;2023-10-08T03:15:35;17.30;70.10
80540;DHT22;69869;48.036;15.780;2023-10-08T03:18:19;17.30;70.10
80540;DHT22;69869;48.036;15.780;2023-10-08T03:20:46;17.20;69.90
80540;DHT22;69869;48.036;15.780;2023-10-08T03:23:16;17.30;70.10
80540;DHT22;69869;48.036;15.780;2023-10-08T03:25:58;17.20;70.10
80540;DHT22;69869;48.036;15.780;2023-10-08T03:28:59;17.30;70.20
80540;DHT22;69869;48.036;15.780;2023-10-08T03:31:25;17.30;70.30
80540;DHT22;69869;48.036;15.780;2023-10-08T03:34:13;17.30;70.20
80540;DHT22;69869;48.036;15.780;2023-10-08T03:36:40;17.30;70.30
80540;DHT22;69869;48.036;15.780;2023-10-08T03:39:16;17.30;70.30
80540;DHT22;69869;48.036;15.780;2023-10-08T03:41:44;17.30;70.30
80540;DHT22;69869;48.036;15.780;2023-10-08T03:44:29;17.30;70.30
80540;DHT22;69869;48.036;15.780;2023-10-08T03:46:55;17.30;70.30
80540;DHT22;69869;48.036;15.780;2023-10-08T03:49:22;17.30;70.30
80540;DHT22;69869;48.036;15.780;2023-10-08T03:51:48;17.30;70.30
80540;DHT22;69869;48.036;15.780;2023-10-08T03:54:17;17.30;70.30
80540;DHT22;69869;48.036;15.780;2023-10-08T03:56:55;17.30;70.40
80540;DHT22;69869;48.036;15.780;2023-10-08T03:59:21;17.30;70.40
80540;DHT22;69869;48.036;15.780;2023-10-08T04:02:00;17.30;70.40
80540;DHT22;69869;48.036;15.780;2023-10-08T04:04:34;17.30;70.40
80540;DHT22;69869;48.036;15.780;2023-10-08T04:07:19;17.30;71.10
80540;DHT22;69869;48.036;15.780;2023-10-08T04:10:05;17.30;70.40
80540;DHT22;69869;48.036;15.780;2023-10-08T04:12:31;17.30;70.50
80540;DHT22;69869;48.036;15.780;2023-10-08T04:15:01;17.30;70.50
80540;DHT22;69869;48.036;15.780;2023-10-08T04:17:26;17.30;70.50
80540;DHT22;69869;48.036;15.780;2023-10-08T04:19:52;17.30;70.50
80540;DHT22;69869;48.036;15.780;2023-10-08T04:22:17;17.30;70.50
80540;DHT22;69869;48.036;15.780;2023-10-08T04:24:44;17.30;70.60
80540;DHT22;69869;48.036;15.780;2023-10-08T04:27:10;17.30;70.60
80540;DHT22;69869;48.036;15.780;2023-10-08T04:29:35;17.30;70.60
80540;DHT22;69869;48.036;15.780;2023-10-08T04:32:05;17.30;70.60
80540;DHT22;69869;48.036;15.780;2023-10-08T04:34:34;17.30;70.60
80540;DHT22;69869;48.036;15.780;2023-10-08T04:37:00;17.30;70.60
80540;DHT22;69869;48.036;15.780;2023-10-08T04:39:37;17.30;70.60
80540;DHT22;69869;48.036;15.780;2023-10-08T04:42:05;17.30;70.60
80540;DHT22;69869;48.036;15.780;2023-10-08T04:44:38;17.30;70.60
80540;DHT22;69869;48.036;15.780;2023-10-08T04:47:07;17.30;70.60
80540;DHT22;69869;48.036;15.780;2023-10-08T04:49:53;17.30;70.70
80540;DHT22;69869;48.036;15.780;2023-10-08T04:52:18;17.30;70.70
80540;DHT22;69869;48.036;15.780;2023-10-08T04:54:45;17.30;70.80
80540;DHT22;69869;48.036;15.780;2023-10-08T04:57:18;17.30;70.70
80540;DHT22;69869;48.036;15.780;2023-10-08T04:59:44;17.30;70.80
80540;DHT22;69869;48.036;15.780;2023-10-08T05:02:12;17.30;70.80
80540;DHT22;69869;48.036;15.780;2023-10-08T05:04:44;17.30;70.80
80540;DHT22;69869;48.036;15.780;2023-10-08T05:07:13;17.30;70.70
80540;DHT22;69869;48.036;15.780;2023-10-08T05:09:57;17.30;70.80
80540;DHT22;69869;48.036;15.780;2023-10-08T05:12:29;17.30;70.80
80540;DHT22;69869;48.036;15.780;2023-10-08T05:14:58;17.30;70.90
80540;DHT22;69869;48.036;15.780;2023-10-08T05:17:44;17.30;70.80
80540;DHT22;69869;48.036;15.780;2023-10-08T05:20:17;17.30;71.50
80540;DHT22;69869;48.036;15.780;2023-10-08T05:23:09;17.30;70.80
80540;DHT22;69869;48.036;15.780;2023-10-08T05:25:51;17.30;70.90
80540;DHT22;69869;48.036;15.780;2023-10-08T05:28:26;17.30;70.80
80540;DHT22;69869;48.036;15.780;2023-10-08T05:30:52;17.30;70.90
80540;DHT22;69869;48.036;15.780;2023-10-08T05:33:45;17.30;70.90
80540;DHT22;69869;48.036;15.780;2023-10-08T05:36:29;17.30;71.10
80540;DHT22;69869;48.036;15.780;2023-10-08T05:39:16;17.30;71.00
80540;DHT22;69869;48.036;15.780;2023-10-08T05:42:08;17.40;71.00
80540;DHT22;69869;48.036;15.780;2023-10-08T05:44:57;17.40;71.10
80540;DHT22;69869;48.036;15.780;2023-10-08T05:47:35;17.40;71.00
80540;DHT22;69869;48.036;15.780;2023-10-08T05:50:01;17.40;71.10
80540;DHT22;69869;48.036;15.780;2023-10-08T05:52:43;17.30;71.00
80540;DHT22;69869;48.036;15.780;2023-10-08T05:55:25;17.40;71.10
80540;DHT22;69869;48.036;15.780;2023-10-08T05:57:54;17.40;71.10
80540;DHT22;69869;48.036;15.780;2023-10-08T06:00:47;17.40;71.10
80540;DHT22;69869;48.036;15.780;2023-10-08T06:03:17;17.40;71.20
80540;DHT22;69869;48.036;15.780;2023-10-08T06:06:03;17.40;71.20
80540;DHT22;69869;48.036;15.780;2023-10-08T06:08:49;17.40;71.20
80540;DHT22;69869;48.036;15.780;2023-10-08T06:11:38;17.40;71.20
80540;DHT22;69869;48.036;15.780;2023-10-08T06:14:10;17.40;71.20
80540;DHT22;69869;48.036;15.780;2023-10-08T06:16:41;17.40;71.20
80540;DHT22;69869;48.036;15.780;2023-10-08T06:19:10;17.30;71.10
80540;DHT22;69869;48.036;15.780;2023-10-08T06:21:38;17.40;71.30
80540;DHT22;69869;48.036;15.780;2023-10-08T06:24:10;17.40;71.30
80540;DHT22;69869;48.036;15.780;2023-10-08T06:26:39;17.40;71.20
80540;DHT22;69869;48.036;15.780;2023-10-08T06:29:11;17.40;71.20
80540;DHT22;69869;48.036;15.780;2023-10-08T06:31:56;17.40;71.30
80540;DHT22;69869;48.036;15.780;2023-10-08T06:34:23;17.40;71.30
80540;DHT22;69869;48.036;15.780;2023-10-08T06:36:55;17.40;71.30
80540;DHT22;69869;48.036;15.780;2023-10-08T06:39:22;17.40;71.30
80540;DHT22;69869;48.036;15.780;2023-10-08T06:41:58;17.40;71.30
80540;DHT22;69869;48.036;15.780;2023-10-08T06:44:24;17.40;71.30
80540;DHT22;69869;48.036;15.780;2023-10-08T06:46:51;17.40;71.30
80540;DHT22;69869;48.036;15.780;2023-10-08T06:49:24;17.40;71.30
80540;DHT22;69869;48.036;15.780;2023-10-08T06:51:51;17.40;71.30
80540;DHT22;69869;48.036;15.780;2023-10-08T06:54:17;17.40;71.30
80540;DHT22;69869;48.036;15.780;2023-10-08T06:56:44;17.40;71.30
80540;DHT22;69869;48.036;15.780;2023-10-08T06:59:17;17.40;71.30
80540;DHT22;69869;48.036;15.780;2023-10-08T07:01:43;17.40;71.30
80540;DHT22;69869;48.036;15.780;2023-10-08T07:04:12;17.40;71.30
80540;DHT22;69869;48.036;15.780;2023-10-08T07:06:42;17.40;71.30
80540;DHT22;69869;48.036;15.780;2023-10-08T07:09:18;17.40;71.30
80540;DHT22;69869;48.036;15.780;2023-10-08T07:11:52;17.40;71.40
80540;DHT22;69869;48.036;15.780;2023-10-08T07:14:23;17.40;71.30
80540;DHT22;69869;48.036;15.780;2023-10-08T07:16:55;17.40;71.40
80540;DHT22;69869;48.036;15.780;2023-10-08T07:19:24;17.40;71.50
80540;DHT22;69869;48.036;15.780;2023-10-08T07:22:01;17.40;71.50
80540;DHT22;69869;48.036;15.780;2023-10-08T07:24:29;17.40;71.40
80540;DHT22;69869;48.036;15.780;2023-10-08T07:26:56;17.40;71.50
80540;DHT22;69869;48.036;15.780;2023-10-08T07:29:22;17.40;71.60
80540;DHT22;69869;48.036;15.780;2023-10-08T07:31:47;17.40;71.60
80540;DHT22;69869;48.036;15.780;2023-10-08T07:34:19;17.40;71.60
80540;DHT22;69869;48.036;15.780;2023-10-08T07:36:51;17.40;71.60
80540;DHT22;69869;48.036;15.780;2023-10-08T07:39:19;17.40;71.70
80540;DHT22;69869;48.036;15.780;2023-10-08T07:41:59;17.40;71.60
80540;DHT22;69869;48.036;15.780;2023-10-08T07:44:26;17.40;71.70
80540;DHT22;69869;48.036;15.780;2023-10-08T07:46:55;17.40;71.70
80540;DHT22;69869;48.036;15.780;2023-10-08T07:49:22;17.40;71.70
80540;DHT22;69869;48.036;15.780;2023-10-08T07:51:49;17.40;71.70
80540;DHT22;69869;48.036;15.780;2023-10-08T07:54:24;17.40;71.80
80540;DHT22;69869;48.036;15.780;2023-10-08T07:56:50;17.50;71.90
80540;DHT22;69869;48.036;15.780;2023-10-08T07:59:25;17.40;71.80
80540;DHT22;69869;48.036;15.780;2023-10-08T08:01:51;17.40;71.80
80540;DHT22;69869;48.036;15.780;2023-10-08T08:04:18;17.40;71.80
80540;DHT22;69869;48.036;15.780;2023-10-08T08:06:50;17.40;71.80
80540;DHT22;69869;48.036;15.780;2023-10-08T08:09:19;17.40;71.80
80540;DHT22;69869;48.036;15.780;2023-10-08T08:11:49;17.40;71.80
80540;DHT22;69869;48.036;15.780;2023-10-08T08:14:16;17.50;71.90
80540;DHT22;69869;48.036;15.780;2023-10-08T08:16:50;17.50;71.90
80540;DHT22;69869;48.036;15.780;2023-10-08T08:19:16;17.40;71.80
80540;DHT22;69869;48.036;15.780;2023-10-08T08:21:43;17.50;72.00
80540;DHT22;69869;48.036;15.780;2023-10-08T08:24:12;17.50;72.00
80540;DHT22;69869;48.036;15.780;2023-10-08T08:26:38;17.50;72.00
80540;DHT22;69869;48.036;15.780;2023-10-08T08:29:27;17.50;72.00
80540;DHT22;69869;48.036;15.780;2023-10-08T08:31:52;17.50;72.00
80540;DHT22;69869;48.036;15.780;2023-10-08T08:34:19;17.50;72.00
80540;DHT22;69869;48.036;15.780;2023-10-08T08:36:49;17.50;72.10
80540;DHT22;69869;48.036;15.780;2023-10-08T08:39:15;17.50;72.00
80540;DHT22;69869;48.036;15.780;2023-10-08T08:42:03;17.50;72.10
80540;DHT22;69869;48.036;15.780;2023-10-08T08:44:37;17.50;72.10
80540;DHT22;69869;48.036;15.780;2023-10-08T08:47:14;17.50;72.10
80540;DHT22;69869;48.036;15.780;2023-10-08T08:49:43;17.50;72.10
80540;DHT22;69869;48.036;15.780;2023-10-08T08:52:10;17.50;72.10
80540;DHT22;69869;48.036;15.780;2023-10-08T08:54:37;17.50;72.10
80540;DHT22;69869;48.036;15.780;2023-10-08T08:57:03;17.50;72.10
80540;DHT22;69869;48.036;15.780;2023-10-08T08:59:30;17.50;72.20
80540;DHT22;69869;48.036;15.780;2023-10-08T09:01:57;17.50;72.10
80540;DHT22;69869;48.036;15.780;2023-10-08T09:04:34;17.50;72.20
80540;DHT22;69869;48.036;15.780;2023-10-08T09:07:03;17.50;72.20
80540;DHT22;69869;48.036;15.780;2023-10-08T09:09:33;17.50;72.20
80540;DHT22;69869;48.036;15.780;2023-10-08T09:11:59;17.50;72.30
80540;DHT22;69869;48.036;15.780;2023-10-08T09:14:26;17.50;72.20
80540;DHT22;69869;48.036;15.780;2023-10-08T09:16:53;17.50;72.20
80540;DHT22;69869;48.036;15.780;2023-10-08T09:19:22;17.50;73.00
80540;DHT22;69869;48.036;15.780;2023-10-08T09:22:09;17.50;72.30
80540;DHT22;69869;48.036;15.780;2023-10-08T09:24:41;17.50;72.20
80540;DHT22;69869;48.036;15.780;2023-10-08T09:27:08;17.50;72.90
80540;DHT22;69869;48.036;15.780;2023-10-08T09:29:37;17.50;72.20
80540;DHT22;69869;48.036;15.780;2023-10-08T09:32:06;17.50;72.30
80540;DHT22;69869;48.036;15.780;2023-10-08T09:34:33;17.50;72.40
80540;DHT22;69869;48.036;15.780;2023-10-08T09:37:00;17.50;72.30
80540;DHT22;69869;48.036;15.780;2023-10-08T09:39:29;17.50;72.40
80540;DHT22;69869;48.036;15.780;2023-10-08T09:42:02;17.50;72.40
80540;DHT22;69869;48.036;15.780;2023-10-08T09:44:29;17.50;72.40
80540;DHT22;69869;48.036;15.780;2023-10-08T09:47:08;17.50;72.40
80540;DHT22;69869;48.036;15.780;2023-10-08T09:49:49;17.50;72.40
80540;DHT22;69869;48.036;15.780;2023-10-08T09:52:23;17.50;72.40
80540;DHT22;69869;48.036;15.780;2023-10-08T09:55:06;17.50;72.40
80540;DHT22;69869;48.036;15.780;2023-10-08T09:57:35;17.50;72.50
80540;DHT22;69869;48.036;15.780;2023-10-08T10:00:02;17.50;72.50
80540;DHT22;69869;48.036;15.780;2023-10-08T10:02:30;17.50;72.50
80540;DHT22;69869;48.036;15.780;2023-10-08T10:04:57;17.50;72.50
80540;DHT22;69869;48.036;15.780;2023-10-08T10:07:25;17.50;72.50
80540;DHT22;69869;48.036;15.780;2023-10-08T10:09:51;17.50;72.50
80540;DHT22;69869;48.036;15.780;2023-10-08T10:12:24;17.60;72.60
80540;DHT22;69869;48.036;15.780;2023-10-08T10:14:52;17.50;72.50
80540;DHT22;69869;48.036;15.780;2023-10-08T10:20:00;17.60;72.70
80540;DHT22;69869;48.036;15.780;2023-10-08T10:22:31;17.60;72.60
80540;DHT22;69869;48.036;15.780;2023-10-08T10:24:59;17.60;72.70
80540;DHT22;69869;48.036;15.780;2023-10-08T10:27:29;17.50;72.60
80540;DHT22;69869;48.036;15.780;2023-10-08T10:30:04;17.60;72.70
80540;DHT22;69869;48.036;15.780;2023-10-08T10:32:34;17.60;72.70
80540;DHT22;69869;48.036;15.780;2023-10-08T10:35:00;17.50;72.70
80540;DHT22;69869;48.036;15.780;2023-10-08T10:37:29;17.60;72.80
80540;DHT22;69869;48.036;15.780;2023-10-08T10:40:07;17.60;72.80
80540;DHT22;69869;48.036;15.780;2023-10-08T10:42:38;17.60;72.80
80540;DHT22;69869;48.036;15.780;2023-10-08T10:45:17;17.50;72.80
80540;DHT22;69869;48.036;15.780;2023-10-08T10:48:02;17.60;72.80
80540;DHT22;69869;48.036;15.780;2023-10-08T10:50:40;17.60;72.90
80540;DHT22;69869;48.036;15.780;2023-10-08T10:53:25;17.50;72.80
80540;DHT22;69869;48.036;15.780;2023-10-08T10:55:52;17.60;72.90
80540;DHT22;69869;48.036;15.780;2023-10-08T10:58:28;17.50;72.80
80540;DHT22;69869;48.036;15.780;2023-10-08T11:01:04;17.60;72.90
80540;DHT22;69869;48.036;15.780;2023-10-08T11:03:49;17.60;72.90
80540;DHT22;69869;48.036;15.780;2023-10-08T11:06:18;17.50;72.80
80540;DHT22;69869;48.036;15.780;2023-10-08T11:08:52;17.60;72.90
80540;DHT22;69869;48.036;15.780;2023-10-08T11:11:19;17.60;72.90
80540;DHT22;69869;48.036;15.780;2023-10-08T11:13:45;17.60;72.90
80540;DHT22;69869;48.036;15.780;2023-10-08T11:16:23;17.60;72.90
80540;DHT22;69869;48.036;15.780;2023-10-08T11:18:50;17.60;72.90
80540;DHT22;69869;48.036;15.780;2023-10-08T11:21:16;17.60;72.90
80540;DHT22;69869;48.036;15.780;2023-10-08T11:23:48;17.60;72.90
80540;DHT22;69869;48.036;15.780;2023-10-08T11:26:37;17.60;72.90
80540;DHT22;69869;48.036;15.780;2023-10-08T11:29:19;17.60;73.00
80540;DHT22;69869;48.036;15.780;2023-10-08T11:31:51;17.60;72.90
80540;DHT22;69869;48.036;15.780;2023-10-08T11:34:17;17.60;72.90
80540;DHT22;69869;48.036;15.780;2023-10-08T11:36:52;17.60;72.90
80540;DHT22;69869;48.036;15.780;2023-10-08T11:39:19;17.60;72.80
80540;DHT22;69869;48.036;15.780;2023-10-08T11:42:01;17.60;72.80
80540;DHT22;69869;48.036;15.780;2023-10-08T11:44:32;17.60;72.70
80540;DHT22;69869;48.036;15.780;2023-10-08T11:47:02;17.60;72.80
80540;DHT22;69869;48.036;15.780;2023-10-08T11:49:41;17.60;72.80
80540;DHT22;69869;48.036;15.780;2023-10-08T11:52:14;17.60;72.80
80540;DHT22;69869;48.036;15.780;2023-10-08T11:54:42;17.60;72.70
80540;DHT22;69869;48.036;15.780;2023-10-08T11:57:08;17.60;72.70
80540;DHT22;69869;48.036;15.780;2023-10-08T11:59:35;17.60;72.80
80540;DHT22;69869;48.036;15.780;2023-10-08T12:02:07;17.60;72.80
80540;DHT22;69869;48.036;15.780;2023-10-08T12:04:33;17.60;72.80
80540;DHT22;69869;48.036;15.780;2023-10-08T12:06:59;17.60;72.70
80540;DHT22;69869;48.036;15.780;2023-10-08T12:09:28;17.60;72.70
80540;DHT22;69869;48.036;15.780;2023-10-08T12:11:54;17.60;72.80
80540;DHT22;69869;48.036;15.780;2023-10-08T12:14:21;17.60;72.80
80540;DHT22;69869;48.036;15.780;2023-10-08T12:16:52;17.60;72.80
80540;DHT22;69869;48.036;15.780;2023-10-08T12:19:17;17.60;72.70
80540;DHT22;69869;48.036;15.780;2023-10-08T12:21:44;17.60;72.70
80540;DHT22;69869;48.036;15.780;2023-10-08T12:24:13;17.60;72.80
80540;DHT22;69869;48.036;15.780;2023-10-08T12:26:40;17.60;72.80
80540;DHT22;69869;48.036;15.780;2023-10-08T12:29:12;17.60;72.90
80540;DHT22;69869;48.036;15.780;2023-10-08T12:31:40;17.60;72.90
80540;DHT22;69869;48.036;15.780;2023-10-08T12:34:05;17.60;72.90
80540;DHT22;69869;48.036;15.780;2023-10-08T12:36:31;17.60;72.80
80540;DHT22;69869;48.036;15.780;2023-10-08T12:39:02;17.60;72.80
80540;DHT22;69869;48.036;15.780;2023-10-08T12:41:35;17.60;72.90
80540;DHT22;69869;48.036;15.780;2023-10-08T12:44:04;17.60;72.80
80540;DHT22;69869;48.036;15.780;2023-10-08T12:46:33;17.60;72.80
80540;DHT22;69869;48.036;15.780;2023-10-08T12:48:59;17.60;72.90
80540;DHT22;69869;48.036;15.780;2023-10-08T12:51:27;17.60;72.80
80540;DHT22;69869;48.036;15.780;2023-10-08T12:53:57;17.60;72.80
80540;DHT22;69869;48.036;15.780;2023-10-08T12:56:32;17.60;72.80
80540;DHT22;69869;48.036;15.780;2023-10-08T12:59:02;17.60;72.80
80540;DHT22;69869;48.036;15.780;2023-10-08T13:01:36;17.60;72.80
80540;DHT22;69869;48.036;15.780;2023-10-08T13:04:06;17.60;72.90
80540;DHT22;69869;48.036;15.780;2023-10-08T13:06:41;17.60;72.80
80540;DHT22;69869;48.036;15.780;2023-10-08T13:09:10;17.60;72.80
80540;DHT22;69869;48.036;15.780;2023-10-08T13:11:39;17.60;72.80
80540;DHT22;69869;48.036;15.780;2023-10-08T13:14:05;17.70;72.90
80540;DHT22;69869;48.036;15.780;2023-10-08T13:16:31;17.60;72.90
80540;DHT22;69869;48.036;15.780;2023-10-08T13:19:00;17.60;72.80
80540;DHT22;69869;48.036;15.780;2023-10-08T13:21:27;17.60;72.80
80540;DHT22;69869;48.036;15.780;2023-10-08T13:23:54;17.60;72.80
80540;DHT22;69869;48.036;15.780;2023-10-08T13:26:28;17.60;72.80
80540;DHT22;69869;48.036;15.780;2023-10-08T13:28:57;17.70;72.90
80540;DHT22;69869;48.036;15.780;2023-10-08T13:31:28;17.60;72.70
80540;DHT22;69869;48.036;15.780;2023-10-08T13:33:55;17.70;72.80
80540;DHT22;69869;48.036;15.780;2023-10-08T13:36:28;17.60;72.70
80540;DHT22;69869;48.036;15.780;2023-10-08T13:38:53;17.60;72.70
80540;DHT22;69869;48.036;15.780;2023-10-08T13:41:20;17.70;73.40
80540;DHT22;69869;48.036;15.780;2023-10-08T13:43:48;17.70;72.80
80540;DHT22;69869;48.036;15.780;2023-10-08T13:46:15;17.60;72.70
80540;DHT22;69869;48.036;15.780;2023-10-08T13:48:43;17.70;72.80
80540;DHT22;69869;48.036;15.780;2023-10-08T13:51:14;17.70;72.80
80540;DHT22;69869;48.036;15.780;2023-10-08T13:53:41;17.70;72.60
80540;DHT22;69869;48.036;15.780;2023-10-08T13:56:11;17.70;72.80
80540;DHT22;69869;48.036;15.780;2023-10-08T13:58:37;17.60;72.70
80540;DHT22;69869;48.036;15.780;2023-10-08T14:01:11;17.70;73.60
80540;DHT22;69869;48.036;15.780;2023-10-08T14:03:47;17.70;72.90
80540;DHT22;69869;48.036;15.780;2023-10-08T14:06:17;17.70;72.90
80540;DHT22;69869;48.036;15.780;2023-10-08T14:08:43;17.70;72.90
80540;DHT22;69869;48.036;15.780;2023-10-08T14:11:31;17.70;73.00
80540;DHT22;69869;48.036;15.780;2023-10-08T14:13:59;17.60;72.90
80540;DHT22;69869;48.036;15.780;2023-10-08T14:16:34;17.60;72.90
80540;DHT22;69869;48.036;15.780;2023-10-08T14:19:00;17.70;73.00
80540;DHT22;69869;48.036;15.780;2023-10-08T14:21:30;17.70;73.00
80540;DHT22;69869;48.036;15.780;2023-10-08T14:23:56;17.70;73.00
80540;DHT22;69869;48.036;15.780;2023-10-08T14:26:29;17.70;73.00
80540;DHT22;69869;48.036;15.780;2023-10-08T14:29:02;17.70;73.00
80540;DHT22;69869;48.036;15.780;2023-10-08T14:31:34;17.70;73.00
80540;DHT22;69869;48.036;15.780;2023-10-08T14:34:04;17.70;73.00
80540;DHT22;69869;48.036;15.780;2023-10-08T14:36:49;17.70;73.10
80540;DHT22;69869;48.036;15.780;2023-10-08T14:39:33;17.70;73.00
80540;DHT22;69869;48.036;15.780;2023-10-08T14:42:18;17.70;72.80
80540;DHT22;69869;48.036;15.780;2023-10-08T14:45:02;17.70;73.00
80540;DHT22;69869;48.036;15.780;2023-10-08T14:47:29;17.70;73.10
80540;DHT22;69869;48.036;15.780;2023-10-08T14:49:54;17.70;73.00
80540;DHT22;69869;48.036;15.780;2023-10-08T14:52:20;17.70;73.00
80540;DHT22;69869;48.036;15.780;2023-10-08T14:54:46;17.70;73.00
80540;DHT22;69869;48.036;15.780;2023-10-08T14:57:13;17.70;73.00
80540;DHT22;69869;48.036;15.780;2023-10-08T14:59:40;17.70;73.00
80540;DHT22;69869;48.036;15.780;2023-10-08T15:02:07;17.70;73.00
80540;DHT22;69869;48.036;15.780;2023-10-08T15:04:32;17.70;73.00
80540;DHT22;69869;48.036;15.780;2023-10-08T15:07:01;17.70;73.10
80540;DHT22;69869;48.036;15.780;2023-10-08T15:09:27;17.70;73.10
80540;DHT22;69869;48.036;15.780;2023-10-08T15:11:53;17.70;73.10
80540;DHT22;69869;48.036;15.780;2023-10-08T15:14:20;17.70;73.10
80540;DHT22;69869;48.036;15.780;2023-10-08T15:16:48;17.70;73.10
80540;DHT22;69869;48.036;15.780;2023-10-08T15:19:21;17.70;73.20
80540;DHT22;69869;48.036;15.780;2023-10-08T15:21:51;17.70;73.20
80540;DHT22;69869;48.036;15.780;2023-10-08T15:24:20;17.70;73.20
80540;DHT22;69869;48.036;15.780;2023-10-08T15:26:53;17.70;73.20
80540;DHT22;69869;48.036;15.780;2023-10-08T15:29:22;17.70;73.20
80540;DHT22;69869;48.036;15.780;2023-10-08T15:31:52;17.70;73.20
80540;DHT22;69869;48.036;15.780;2023-10-08T15:34:17;17.70;73.20
80540;DHT22;69869;48.036;15.780;2023-10-08T15:36:43;17.70;73.20
80540;DHT22;69869;48.036;15.780;2023-10-08T15:39:09;17.70;73.20
80540;DHT22;69869;48.036;15.780;2023-10-08T15:41:41;17.70;73.30